createdAt,value
2023-08-23T00:01:41.468Z,101753.79
2023-08-23T00:04:09.653Z,101752.42
2023-08-23T00:06:37.912Z,101756.52
2023-08-23T00:09:06.848Z,101751.48
2023-08-23T00:11:35.000Z,101752.38
2023-08-23T00:14:04.164Z,101753.45
2023-08-23T00:16:32.497Z,101753.45
2023-08-23T00:19:00.826Z,101758.77
2023-08-23T00:21:31.665Z,101758.30
2023-08-23T00:23:59.859Z,101753.41
2023-08-23T00:26:28.113Z,101749.58
2023-08-23T00:28:56.481Z,101746.42
2023-08-23T00:31:24.561Z,101742.71
2023-08-23T00:33:52.665Z,101740.95
2023-08-23T00:36:20.694Z,101742.36
2023-08-23T00:38:48.881Z,101746.98
2023-08-23T00:41:17.153Z,101746.48
2023-08-23T00:43:45.221Z,101748.79
2023-08-23T00:46:15.085Z,101741.59
2023-08-23T00:48:44.947Z,101740.39
2023-08-23T00:51:15.262Z,101741.96
2023-08-23T00:53:43.479Z,101740.95
2023-08-23T00:56:13.062Z,101744.29
2023-08-23T00:58:41.474Z,101746.25
2023-08-23T01:01:09.701Z,101749.39
2023-08-23T01:03:38.181Z,101744.48
2023-08-23T01:06:27.648Z,101742.04
2023-08-23T01:09:25.856Z,101746.33
2023-08-23T01:12:20.208Z,101743.27
2023-08-23T01:14:54.374Z,101745.27
2023-08-23T01:17:23.927Z,101742.29
2023-08-23T01:19:53.408Z,101739.86
2023-08-23T01:22:24.791Z,101739.52
2023-08-23T01:24:54.698Z,101737.27
2023-08-23T01:27:22.870Z,101737.10
2023-08-23T01:29:50.964Z,101740.45
2023-08-23T01:32:32.543Z,101742.75
2023-08-23T01:35:24.050Z,101746.27
2023-08-23T01:37:56.213Z,101748.60
2023-08-23T01:40:25.144Z,101745.31
2023-08-23T01:42:54.909Z,101751.49
2023-08-23T01:45:22.980Z,101744.31
2023-08-23T01:47:51.618Z,101748.36
2023-08-23T01:50:19.849Z,101746.42
2023-08-23T01:52:47.962Z,101745.55
2023-08-23T01:55:19.768Z,101748.71
2023-08-23T01:57:48.735Z,101748.36
2023-08-23T02:00:17.346Z,101756.14
2023-08-23T02:02:45.557Z,101763.96
2023-08-23T02:05:13.857Z,101762.63
2023-08-23T02:07:42.067Z,101768.47
2023-08-23T02:10:10.450Z,101764.98
2023-08-23T02:12:38.545Z,101754.98
2023-08-23T02:15:07.502Z,101753.94
2023-08-23T02:17:35.596Z,101752.71
2023-08-23T02:20:04.827Z,101752.20
2023-08-23T02:22:33.147Z,101752.63
2023-08-23T02:25:01.331Z,101748.77
2023-08-23T02:27:29.589Z,101749.66
2023-08-23T02:29:58.077Z,101752.48
2023-08-23T02:32:26.594Z,101761.99
2023-08-23T02:34:54.838Z,101762.04
2023-08-23T02:37:22.843Z,101760.46
2023-08-23T02:39:50.828Z,101762.61
2023-08-23T02:42:18.843Z,101763.34
2023-08-23T02:44:46.922Z,101763.53
2023-08-23T02:47:15.187Z,101761.62
2023-08-23T02:49:44.179Z,101758.84
2023-08-23T02:52:12.300Z,101764.48
2023-08-23T02:54:40.931Z,101764.47
2023-08-23T02:57:09.124Z,101761.86
2023-08-23T02:59:37.292Z,101760.48
2023-08-23T03:02:05.670Z,101761.88
2023-08-23T03:04:34.036Z,101763.15
2023-08-23T03:07:01.988Z,101766.15
2023-08-23T03:09:30.335Z,101760.36
2023-08-23T03:11:59.599Z,101756.69
2023-08-23T03:14:27.746Z,101757.04
2023-08-23T03:16:56.039Z,101758.09
2023-08-23T03:19:24.215Z,101760.58
2023-08-23T03:21:52.326Z,101760.41
2023-08-23T03:24:20.550Z,101762.72
2023-08-23T03:26:49.230Z,101762.02
2023-08-23T03:29:18.425Z,101763.98
2023-08-23T03:31:47.427Z,101756.59
2023-08-23T03:34:17.125Z,101757.49
2023-08-23T03:36:45.347Z,101754.89
2023-08-23T03:39:13.481Z,101757.88
2023-08-23T03:41:41.645Z,101764.55
2023-08-23T03:44:09.819Z,101765.95
2023-08-23T03:46:38.076Z,101765.94
2023-08-23T03:49:06.268Z,101766.98
2023-08-23T03:51:34.462Z,101766.10
2023-08-23T03:54:02.932Z,101762.59
2023-08-23T03:56:32.215Z,101763.66
2023-08-23T03:59:00.904Z,101759.65
2023-08-23T04:01:29.136Z,101763.16
2023-08-23T04:03:57.511Z,101763.15
2023-08-23T04:06:25.831Z,101764.71
2023-08-23T04:08:53.907Z,101765.41
2023-08-23T04:11:21.975Z,101762.39
2023-08-23T04:13:50.063Z,101761.48
2023-08-23T04:16:18.249Z,101761.45
2023-08-23T04:18:46.530Z,101759.30
2023-08-23T04:21:14.672Z,101759.27
2023-08-23T04:23:42.985Z,101760.83
2023-08-23T04:26:11.215Z,101760.45
2023-08-23T04:28:39.292Z,101763.92
2023-08-23T04:31:07.358Z,101766.52
2023-08-23T04:33:45.648Z,101763.35
2023-08-23T04:36:13.839Z,101759.09
2023-08-23T04:38:42.024Z,101759.75
2023-08-23T04:41:10.597Z,101758.80
2023-08-23T04:43:38.763Z,101759.45
2023-08-23T04:46:08.574Z,101764.83
2023-08-23T04:48:37.189Z,101765.10
2023-08-23T04:51:10.326Z,101761.39
2023-08-23T04:53:39.109Z,101761.16
2023-08-23T04:56:08.048Z,101756.11
2023-08-23T04:58:36.353Z,101755.20
2023-08-23T05:01:05.975Z,101753.03
2023-08-23T05:03:36.265Z,101759.17
2023-08-23T05:06:04.512Z,101756.05
2023-08-23T05:08:35.441Z,101755.07
2023-08-23T05:11:11.340Z,101757.98
2023-08-23T05:13:39.570Z,101757.34
2023-08-23T05:16:07.840Z,101751.56
2023-08-23T05:18:36.326Z,101757.36
2023-08-23T05:21:04.857Z,101758.17
2023-08-23T05:23:33.089Z,101757.57
2023-08-23T05:26:04.042Z,101755.11
2023-08-23T05:28:33.903Z,101755.65
2023-08-23T05:31:04.412Z,101755.22
2023-08-23T05:33:34.116Z,101759.96
2023-08-23T05:36:04.695Z,101757.06
2023-08-23T05:38:32.977Z,101756.29
2023-08-23T05:41:02.345Z,101761.18
2023-08-23T05:43:30.402Z,101768.66
2023-08-23T05:45:58.939Z,101766.64
2023-08-23T05:48:27.446Z,101772.05
2023-08-23T05:50:55.707Z,101777.67
2023-08-23T05:53:23.922Z,101777.77
2023-08-23T05:55:52.281Z,101778.70
2023-08-23T05:58:20.410Z,101782.20
2023-08-23T06:00:49.837Z,101779.82
2023-08-23T06:03:18.461Z,101775.91
2023-08-23T06:05:47.127Z,101774.80
2023-08-23T06:08:15.344Z,101779.89
2023-08-23T06:10:43.333Z,101779.00
2023-08-23T06:13:11.336Z,101779.39
2023-08-23T06:15:39.475Z,101773.77
2023-08-23T06:18:07.663Z,101771.16
2023-08-23T06:20:35.752Z,101767.30
2023-08-23T06:23:04.206Z,101759.93
2023-08-23T06:25:32.347Z,101754.96
2023-08-23T06:28:00.559Z,101758.36
2023-08-23T06:30:28.736Z,101762.50
2023-08-23T06:32:57.423Z,101763.02
2023-08-23T06:35:27.670Z,101767.42
2023-08-23T06:37:55.875Z,101763.98
2023-08-23T06:40:24.134Z,101762.70
2023-08-23T06:42:52.333Z,101760.92
2023-08-23T06:45:20.348Z,101762.29
2023-08-23T06:47:48.871Z,101759.96
2023-08-23T06:50:17.394Z,101764.54
2023-08-23T06:52:46.207Z,101758.77
2023-08-23T06:55:14.526Z,101764.65
2023-08-23T06:57:42.646Z,101764.61
2023-08-23T07:00:11.621Z,101763.00
2023-08-23T07:02:40.140Z,101763.91
2023-08-23T07:05:09.616Z,101765.42
2023-08-23T07:07:37.672Z,101768.65
2023-08-23T07:10:18.029Z,101765.23
2023-08-23T07:12:54.255Z,101766.91
2023-08-23T07:15:22.538Z,101769.90
2023-08-23T07:17:50.899Z,101769.38
2023-08-23T07:20:19.399Z,101767.82
2023-08-23T07:22:47.569Z,101771.08
2023-08-23T07:25:15.844Z,101773.55
2023-08-23T07:27:44.344Z,101769.99
2023-08-23T07:30:13.589Z,101769.86
2023-08-23T07:32:41.798Z,101768.28
2023-08-23T07:35:10.711Z,101769.82
2023-08-23T07:37:39.705Z,101770.23
2023-08-23T07:40:10.874Z,101776.35
2023-08-23T07:42:39.397Z,101775.17
2023-08-23T07:45:09.115Z,101773.39
2023-08-23T07:47:37.844Z,101767.44
2023-08-23T07:50:07.300Z,101760.64
2023-08-23T07:52:36.923Z,101763.79
2023-08-23T07:55:06.570Z,101762.84
2023-08-23T07:57:34.890Z,101764.61
2023-08-23T08:00:03.396Z,101764.77
2023-08-23T08:02:34.700Z,101772.50
2023-08-23T08:05:03.216Z,101775.66
2023-08-23T08:08:01.376Z,101775.63
2023-08-23T08:10:21.371Z,101778.99
2023-08-23T08:12:49.746Z,101777.20
2023-08-23T08:15:17.932Z,101775.19
2023-08-23T08:17:46.523Z,101774.97
2023-08-23T08:20:15.068Z,101777.02
2023-08-23T08:22:43.654Z,101777.70
2023-08-23T08:25:14.129Z,101777.69
2023-08-23T08:27:43.044Z,101774.79
2023-08-23T08:30:11.866Z,101772.69
2023-08-23T08:32:41.985Z,101777.29
2023-08-23T08:35:10.848Z,101778.60
2023-08-23T08:37:39.145Z,101775.94
2023-08-23T08:40:09.034Z,101771.63
2023-08-23T08:42:37.742Z,101774.94
2023-08-23T08:45:07.433Z,101777.00
2023-08-23T08:47:35.852Z,101777.88
2023-08-23T08:50:04.512Z,101780.97
2023-08-23T08:52:32.847Z,101778.44
2023-08-23T08:55:02.424Z,101779.95
2023-08-23T08:57:33.132Z,101778.20
2023-08-23T09:00:02.419Z,101780.86
2023-08-23T09:02:32.844Z,101775.55
2023-08-23T09:05:02.957Z,101775.43
2023-08-23T09:07:31.659Z,101779.41
2023-08-23T09:09:59.792Z,101775.45
2023-08-23T09:12:27.824Z,101775.23
2023-08-23T09:14:56.180Z,101781.55
2023-08-23T09:17:24.803Z,101779.81
2023-08-23T09:19:53.160Z,101778.02
2023-08-23T09:22:22.897Z,101773.85
2023-08-23T09:24:51.247Z,101770.66
2023-08-23T09:27:36.785Z,101772.91
2023-08-23T09:30:07.493Z,101774.33
2023-08-23T09:32:36.984Z,101772.56
2023-08-23T09:35:15.874Z,101768.65
2023-08-23T09:37:46.242Z,101764.41
2023-08-23T09:40:19.173Z,101768.33
2023-08-23T09:42:48.110Z,101771.84
2023-08-23T09:45:21.758Z,101772.15
2023-08-23T09:47:56.510Z,101772.70
2023-08-23T09:50:26.013Z,101768.80
2023-08-23T09:53:11.686Z,101768.99
2023-08-23T09:55:40.782Z,101768.19
2023-08-23T09:58:09.932Z,101765.45
2023-08-23T10:00:39.151Z,101761.60
2023-08-23T10:03:08.898Z,101766.33
2023-08-23T10:05:37.508Z,101770.21
2023-08-23T10:08:05.655Z,101769.63
2023-08-23T10:10:34.319Z,101770.59
2023-08-23T10:13:06.757Z,101769.92
2023-08-23T10:15:38.973Z,101765.61
2023-08-23T10:18:13.055Z,101768.20
2023-08-23T10:20:42.678Z,101769.30
2023-08-23T10:23:16.905Z,101769.40
2023-08-23T10:25:46.392Z,101765.31
2023-08-23T10:28:17.633Z,101762.23
2023-08-23T10:30:52.628Z,101759.79
2023-08-23T10:33:22.405Z,101761.25
2023-08-23T10:35:50.540Z,101759.02
2023-08-23T10:38:18.582Z,101758.08
2023-08-23T10:40:48.812Z,101754.45
2023-08-23T10:43:21.646Z,101755.34
2023-08-23T10:46:10.321Z,101756.10
2023-08-23T10:48:40.562Z,101757.41
2023-08-23T10:51:08.759Z,101756.59
2023-08-23T10:53:36.805Z,101756.27
2023-08-23T10:56:05.112Z,101756.64
2023-08-23T10:58:34.454Z,101760.23
2023-08-23T11:01:03.633Z,101754.55
2023-08-23T11:03:33.511Z,101752.55
2023-08-23T11:06:02.656Z,101754.63
2023-08-23T11:08:31.220Z,101755.20
2023-08-23T11:10:59.676Z,101758.54
2023-08-23T11:13:27.742Z,101756.45
2023-08-23T11:15:56.790Z,101759.77
2023-08-23T11:18:25.455Z,101758.68
2023-08-23T11:20:54.412Z,101757.63
2023-08-23T11:23:22.396Z,101764.51
2023-08-23T11:25:50.424Z,101760.99
2023-08-23T11:28:20.803Z,101753.57
2023-08-23T11:30:50.781Z,101754.60
2023-08-23T11:33:19.128Z,101755.52
2023-08-23T11:35:47.293Z,101752.08
2023-08-23T11:38:15.427Z,101751.45
2023-08-23T11:40:48.469Z,101751.70
2023-08-23T11:43:22.853Z,101749.38
2023-08-23T11:45:53.938Z,101750.54
2023-08-23T11:48:24.129Z,101751.60
2023-08-23T11:50:53.343Z,101753.20
2023-08-23T11:53:21.360Z,101749.34
2023-08-23T11:55:51.351Z,101751.81
2023-08-23T11:58:19.490Z,101746.88
2023-08-23T12:00:48.837Z,101745.09
2023-08-23T12:03:17.797Z,101746.92
2023-08-23T12:05:46.305Z,101750.13
2023-08-23T12:08:14.694Z,101743.20
2023-08-23T12:10:43.181Z,101733.60
2023-08-23T12:13:13.681Z,101742.15
2023-08-23T12:15:41.926Z,101740.42
2023-08-23T12:18:10.153Z,101741.38
2023-08-23T12:20:38.427Z,101740.55
2023-08-23T12:23:06.700Z,101740.16
2023-08-23T12:25:34.805Z,101734.32
2023-08-23T12:28:02.929Z,101731.54
2023-08-23T12:30:31.780Z,101731.51
2023-08-23T12:32:59.862Z,101729.43
2023-08-23T12:35:27.944Z,101729.40
2023-08-23T12:37:56.036Z,101731.30
2023-08-23T12:40:24.106Z,101720.94
2023-08-23T12:42:53.298Z,101723.20
2023-08-23T12:45:21.834Z,101714.25
2023-08-23T12:47:50.338Z,101713.17
2023-08-23T12:50:19.050Z,101707.20
2023-08-23T12:52:47.234Z,101706.78
2023-08-23T12:55:15.437Z,101703.73
2023-08-23T12:57:43.874Z,101701.60
2023-08-23T13:00:29.090Z,101703.63
2023-08-23T13:02:58.798Z,101704.07
2023-08-23T13:05:27.989Z,101701.77
2023-08-23T13:07:56.125Z,101703.47
2023-08-23T13:10:24.297Z,101703.58
2023-08-23T13:12:52.571Z,101705.64
2023-08-23T13:15:21.060Z,101704.91
2023-08-23T13:17:49.666Z,101704.16
2023-08-23T13:20:18.151Z,101701.36
2023-08-23T13:22:46.836Z,101700.75
2023-08-23T13:25:15.078Z,101703.79
2023-08-23T13:27:43.246Z,101698.84
2023-08-23T13:30:12.292Z,101701.98
2023-08-23T13:32:40.619Z,101699.18
2023-08-23T13:35:09.301Z,101699.77
2023-08-23T13:37:37.592Z,101696.81
2023-08-23T13:40:07.472Z,101691.02
2023-08-23T13:42:37.264Z,101690.71
2023-08-23T13:45:08.876Z,101686.33
2023-08-23T13:47:38.211Z,101682.25
2023-08-23T13:50:07.613Z,101683.05
2023-08-23T13:52:35.935Z,101687.66
2023-08-23T13:55:05.376Z,101685.95
2023-08-23T13:57:33.623Z,101684.43
2023-08-23T14:00:01.749Z,101684.91
2023-08-23T14:02:29.977Z,101686.17
2023-08-23T14:04:58.216Z,101684.96
2023-08-23T14:07:27.062Z,101685.61
2023-08-23T14:09:55.289Z,101684.92
2023-08-23T14:12:23.469Z,101681.09
2023-08-23T14:14:51.633Z,101681.98
2023-08-23T14:17:19.914Z,101673.45
2023-08-23T14:19:49.969Z,101669.11
2023-08-23T14:22:18.392Z,101670.98
2023-08-23T14:24:46.417Z,101671.64
2023-08-23T14:27:15.573Z,101673.41
2023-08-23T14:29:43.743Z,101675.25
2023-08-23T14:32:12.858Z,101677.39
2023-08-23T14:34:40.913Z,101675.56
2023-08-23T14:37:09.085Z,101678.94
2023-08-23T14:39:37.313Z,101678.39
2023-08-23T14:42:05.598Z,101675.83
2023-08-23T14:44:34.416Z,101672.64
2023-08-23T14:47:02.603Z,101670.68
2023-08-23T14:49:30.862Z,101668.60
2023-08-23T14:51:59.039Z,101670.51
2023-08-23T14:54:28.337Z,101672.04
2023-08-23T14:56:56.408Z,101669.02
2023-08-23T14:59:24.597Z,101660.70
2023-08-23T15:01:52.857Z,101661.33
2023-08-23T15:04:21.766Z,101656.59
2023-08-23T15:06:49.830Z,101658.55
2023-08-23T15:09:18.714Z,101660.07
2023-08-23T15:11:46.916Z,101663.09
2023-08-23T15:14:15.049Z,101657.26
2023-08-23T15:16:43.164Z,101662.31
2023-08-23T15:19:11.904Z,101660.81
2023-08-23T15:21:40.079Z,101661.11
2023-08-23T15:24:08.119Z,101660.89
2023-08-23T15:26:36.230Z,101661.75
2023-08-23T15:29:05.733Z,101664.02
2023-08-23T15:31:33.935Z,101664.14
2023-08-23T15:34:02.537Z,101669.17
2023-08-23T15:36:32.303Z,101659.35
2023-08-23T15:39:04.464Z,101657.89
2023-08-23T15:41:32.595Z,101660.51
2023-08-23T15:44:00.921Z,101657.09
2023-08-23T15:46:29.515Z,101654.27
2023-08-23T15:48:57.574Z,101658.59
2023-08-23T15:51:25.837Z,101664.00
2023-08-23T15:53:54.008Z,101670.83
2023-08-23T15:56:22.091Z,101666.47
2023-08-23T15:58:50.253Z,101671.46
2023-08-23T16:01:18.762Z,101673.41
2023-08-23T16:03:46.947Z,101668.27
2023-08-23T16:06:14.976Z,101676.50
2023-08-23T16:08:43.160Z,101669.45
2023-08-23T16:11:11.215Z,101671.00
2023-08-23T16:13:39.609Z,101671.41
2023-08-23T16:16:07.746Z,101671.90
2023-08-23T16:18:36.166Z,101674.06
2023-08-23T16:21:04.469Z,101670.47
2023-08-23T16:23:33.010Z,101665.77
2023-08-23T16:26:03.394Z,101665.98
2023-08-23T16:28:31.705Z,101665.66
2023-08-23T16:30:59.789Z,101660.90
2023-08-23T16:33:27.952Z,101659.73
2023-08-23T16:35:56.263Z,101659.00
2023-08-23T16:38:24.350Z,101656.67
2023-08-23T16:40:52.371Z,101657.02
2023-08-23T16:43:20.636Z,101651.19
2023-08-23T16:45:48.864Z,101651.02
2023-08-23T16:48:17.116Z,101651.39
2023-08-23T16:50:45.258Z,101650.86
2023-08-23T16:53:13.680Z,101651.60
2023-08-23T16:55:41.809Z,101652.59
2023-08-23T16:58:09.981Z,101646.49
2023-08-23T17:00:38.206Z,101650.53
2023-08-23T17:03:06.342Z,101650.18
2023-08-23T17:05:35.387Z,101652.89
2023-08-23T17:08:04.441Z,101651.86
2023-08-23T17:10:33.269Z,101654.89
2023-08-23T17:13:03.122Z,101659.07
2023-08-23T17:15:31.784Z,101659.98
2023-08-23T17:18:00.015Z,101665.17
2023-08-23T17:20:28.286Z,101664.05
2023-08-23T17:22:58.904Z,101668.40
2023-08-23T17:25:27.866Z,101665.38
2023-08-23T17:28:00.048Z,101665.75
2023-08-23T17:30:29.956Z,101662.80
2023-08-23T17:32:58.111Z,101658.39
2023-08-23T17:35:26.401Z,101659.38
2023-08-23T17:37:54.878Z,101661.95
2023-08-23T17:40:23.167Z,101665.02
2023-08-23T17:42:51.271Z,101664.08
2023-08-23T17:45:19.811Z,101667.08
2023-08-23T17:47:47.890Z,101670.61
2023-08-23T17:50:16.376Z,101674.13
2023-08-23T17:52:44.428Z,101672.70
2023-08-23T17:55:13.424Z,101683.20
2023-08-23T17:57:41.603Z,101683.55
2023-08-23T18:00:10.956Z,101684.63
2023-08-23T18:02:42.910Z,101683.20
2023-08-23T18:05:11.273Z,101683.36
2023-08-23T18:07:39.916Z,101682.91
2023-08-23T18:10:09.540Z,101683.36
2023-08-23T18:12:37.739Z,101685.64
2023-08-23T18:15:06.782Z,101683.09
2023-08-23T18:17:34.969Z,101691.38
2023-08-23T18:20:03.174Z,101690.26
2023-08-23T18:22:31.309Z,101692.48
2023-08-23T18:24:59.376Z,101693.17
2023-08-23T18:27:27.392Z,101693.48
2023-08-23T18:29:55.521Z,101692.89
2023-08-23T18:32:23.733Z,101692.31
2023-08-23T18:34:51.866Z,101693.72
2023-08-23T18:37:20.034Z,101696.49
2023-08-23T18:39:48.222Z,101694.83
2023-08-23T18:42:16.258Z,101698.84
2023-08-23T18:44:44.349Z,101697.90
2023-08-23T18:47:12.422Z,101700.63
2023-08-23T18:49:42.334Z,101699.61
2023-08-23T18:52:10.434Z,101700.60
2023-08-23T18:54:38.632Z,101704.61
2023-08-23T18:57:08.834Z,101714.75
2023-08-23T18:59:38.329Z,101712.49
2023-08-23T19:02:06.722Z,101707.89
2023-08-23T19:04:34.954Z,101710.84
2023-08-23T19:07:03.135Z,101709.72
2023-08-23T19:09:31.199Z,101713.90
2023-08-23T19:11:59.267Z,101713.85
2023-08-23T19:14:27.499Z,101711.64
2023-08-23T19:16:55.444Z,101711.73
2023-08-23T19:19:23.644Z,101707.19
2023-08-23T19:21:56.925Z,101708.34
2023-08-23T19:24:26.081Z,101708.02
2023-08-23T19:26:54.142Z,101712.30
2023-08-23T19:29:22.827Z,101711.48
2023-08-23T19:32:05.704Z,101709.42
2023-08-23T19:34:34.698Z,101705.14
2023-08-23T19:37:04.016Z,101702.91
2023-08-23T19:39:33.540Z,101703.17
2023-08-23T19:42:01.624Z,101702.27
2023-08-23T19:44:29.789Z,101698.72
2023-08-23T19:46:57.857Z,101700.29
2023-08-23T19:49:26.433Z,101699.41
2023-08-23T19:51:54.636Z,101705.34
2023-08-23T19:54:22.687Z,101704.01
2023-08-23T19:56:50.807Z,101700.33
2023-08-23T19:59:18.924Z,101696.40
2023-08-23T20:01:49.313Z,101695.87
2023-08-23T20:04:17.629Z,101696.55
2023-08-23T20:06:46.141Z,101694.41
2023-08-23T20:09:14.278Z,101695.43
2023-08-23T20:11:43.370Z,101697.20
2023-08-23T20:14:11.443Z,101696.79
2023-08-23T20:16:39.513Z,101693.92
2023-08-23T20:19:07.522Z,101694.52
2023-08-23T20:21:35.665Z,101698.17
2023-08-23T20:24:03.983Z,101698.88
2023-08-23T20:26:32.625Z,101698.00
2023-08-23T20:29:02.013Z,101697.67
2023-08-23T20:31:30.116Z,101694.61
2023-08-23T20:33:58.378Z,101689.77
2023-08-23T20:36:27.452Z,101690.23
2023-08-23T20:38:55.680Z,101688.56
2023-08-23T20:41:23.801Z,101689.64
2023-08-23T20:43:53.912Z,101685.38
2023-08-23T20:46:22.037Z,101682.80
2023-08-23T20:48:50.430Z,101682.79
2023-08-23T20:51:18.478Z,101680.29
2023-08-23T20:53:46.455Z,101678.67
2023-08-23T20:56:16.403Z,101677.75
2023-08-23T20:58:44.529Z,101678.05
2023-08-23T21:01:13.863Z,101671.50
2023-08-23T21:03:42.282Z,101662.97
2023-08-23T21:06:10.654Z,101659.66
2023-08-23T21:08:38.925Z,101661.65
2023-08-23T21:11:06.997Z,101660.23
2023-08-23T21:13:35.414Z,101658.43
2023-08-23T21:16:03.646Z,101652.42
2023-08-23T21:18:31.823Z,101649.23
2023-08-23T21:20:59.987Z,101648.11
2023-08-23T21:23:29.617Z,101642.43
2023-08-23T21:25:57.980Z,101639.76
2023-08-23T21:28:26.157Z,101636.27
2023-08-23T21:30:54.362Z,101636.44
2023-08-23T21:33:23.620Z,101635.44
2023-08-23T21:35:52.111Z,101630.43
2023-08-23T21:38:20.493Z,101629.36
2023-08-23T21:40:59.153Z,101624.59
2023-08-23T21:43:28.652Z,101624.96
2023-08-23T21:45:56.714Z,101633.62
2023-08-23T21:48:25.892Z,101632.66
2023-08-23T21:50:53.983Z,101629.40
2023-08-23T21:53:22.225Z,101630.14
2023-08-23T21:55:57.314Z,101629.45
2023-08-23T21:58:30.643Z,101632.34
2023-08-23T22:01:03.923Z,101632.84
2023-08-23T22:03:33.537Z,101630.98
2023-08-23T22:06:07.461Z,101632.17
2023-08-23T22:08:40.537Z,101629.20
2023-08-23T22:11:12.114Z,101631.33
2023-08-23T22:13:43.132Z,101638.61
2023-08-23T22:16:12.551Z,101640.87
2023-08-23T22:18:41.216Z,101646.83
2023-08-23T22:21:11.403Z,101643.49
2023-08-23T22:23:39.720Z,101648.91
2023-08-23T22:26:07.991Z,101650.80
2023-08-23T22:28:36.171Z,101653.44
2023-08-23T22:31:04.561Z,101650.05
2023-08-23T22:33:32.927Z,101648.48
2023-08-23T22:36:01.179Z,101644.79
2023-08-23T22:38:29.358Z,101642.90
2023-08-23T22:40:57.811Z,101638.55
2023-08-23T22:43:26.295Z,101630.30
2023-08-23T22:45:55.037Z,101628.94
2023-08-23T22:48:23.490Z,101625.15
2023-08-23T22:50:52.275Z,101623.11
2023-08-23T22:53:20.281Z,101633.40
2023-08-23T22:55:48.348Z,101635.38
2023-08-23T22:58:16.582Z,101637.75
2023-08-23T23:00:44.856Z,101634.15
2023-08-23T23:03:13.076Z,101633.91
2023-08-23T23:05:41.124Z,101633.81
2023-08-23T23:08:09.357Z,101637.77
2023-08-23T23:10:37.734Z,101638.17
2023-08-23T23:13:06.132Z,101642.72
2023-08-23T23:15:34.320Z,101641.20
2023-08-23T23:18:02.396Z,101638.89
2023-08-23T23:20:30.450Z,101642.42
2023-08-23T23:22:58.815Z,101646.84
2023-08-23T23:25:26.898Z,101651.65
2023-08-23T23:27:55.176Z,101658.16
2023-08-23T23:30:23.470Z,101664.45
2023-08-23T23:32:52.055Z,101669.00
2023-08-23T23:35:20.255Z,101666.17
2023-08-23T23:37:49.017Z,101663.16
2023-08-23T23:40:17.988Z,101661.58
2023-08-23T23:42:46.194Z,101660.16
2023-08-23T23:45:34.570Z,101666.48
2023-08-23T23:48:03.939Z,101676.11
2023-08-23T23:50:33.204Z,101677.98
2023-08-23T23:53:01.958Z,101681.75
2023-08-23T23:55:30.317Z,101679.35
2023-08-23T23:57:58.536Z,101678.23
